Time;durP1;ratioP1;P1;durP2;ratioP2;P2;SDS_P1;SDS_P2;PMS_P1;PMS_P2;Temp;Humidity;BMP_temperature;BMP_pressure;BME280_temperature;BME280_humidity;BME280_pressure;Samples;Min_cycle;Max_cycle;Signal;HPM_P1;HPM_P2
2022/06/26 00:00:26;;;;;;;;;;;;;;;20.70;88.97;100570.63;10588810;28;19924;-63
2022/06/26 00:05:39;;;;;;;;;;;;;;;20.64;89.94;100577.03;10588393;28;20020;-67
2022/06/26 00:10:45;;;;;;;;;;;;;;;20.59;89.17;100589.59;10588482;28;19930;-65
2022/06/26 00:15:49;;;;;;;;;;;;;;;20.53;91.91;100591.69;10588191;28;19946;-67
2022/06/26 00:20:52;;;;;;;;;;;;;;;20.49;90.87;100593.59;10588089;28;19965;-65
2022/06/26 00:25:55;;;;;;;;;;;;;;;20.43;90.71;100593.03;10587955;28;19942;-68
2022/06/26 00:31:00;;;;;;;;;;;;;;;20.39;93.39;100594.97;10587620;28;19941;-63
2022/06/26 00:36:03;;;;;;;;;;;;;;;20.36;92.59;100597.72;10587427;28;19976;-66
2022/06/26 00:41:06;;;;;;;;;;;;;;;20.29;93.52;100601.59;10586897;28;19924;-63
2022/06/26 00:46:10;;;;;;;;;;;;;;;20.22;94.96;100604.56;10587130;28;19961;-66
2022/06/26 00:51:13;;;;;;;;;;;;;;;20.15;95.08;100611.88;10586847;28;19924;-62
2022/06/26 00:56:17;;;;;;;;;;;;;;;20.04;95.23;100611.47;10586395;28;19927;-65
2022/06/26 01:01:21;;;;;;;;;;;;;;;19.90;97.19;100605.97;10586489;28;19923;-62
2022/06/26 01:06:24;;;;;;;;;;;;;;;19.90;98.88;100611.25;10586363;28;19924;-68
2022/06/26 01:11:28;;;;;;;;;;;;;;;19.87;98.59;100621.91;10585843;28;19938;-65
2022/06/26 01:16:32;;;;;;;;;;;;;;;19.88;99.76;100618.34;10585136;28;19923;-64
2022/06/26 01:21:36;;;;;;;;;;;;;;;19.85;99.56;100621.13;10585514;28;20273;-66
2022/06/26 01:26:41;;;;;;;;;;;;;;;19.80;99.47;100623.09;10585474;28;19924;-65
2022/06/26 01:31:44;;;;;;;;;;;;;;;19.74;100.00;100625.16;10585508;28;19924;-67
2022/06/26 01:36:47;;;;;;;;;;;;;;;19.68;98.82;100628.91;10585165;28;19938;-66
2022/06/26 01:41:51;;;;;;;;;;;;;;;19.64;98.21;100631.75;10584875;28;19930;-64
2022/06/26 01:46:54;;;;;;;;;;;;;;;19.59;98.87;100641.63;10584951;28;20346;-63
2022/06/26 01:51:59;;;;;;;;;;;;;;;19.53;98.89;100634.84;10583968;28;20308;-66
2022/06/26 01:57:04;;;;;;;;;;;;;;;19.49;99.69;100643.78;10584653;28;20250;-66
2022/06/26 02:02:07;;;;;;;;;;;;;;;19.46;100.00;100647.41;10584729;28;20395;-65
2022/06/26 02:07:10;;;;;;;;;;;;;;;19.51;100.00;100655.09;10584598;28;20281;-67
2022/06/26 02:17:41;;;;;;;;;;;;;;;19.43;100.00;100660.69;10584529;28;20342;-64
2022/06/26 02:22:44;;;;;;;;;;;;;;;19.39;100.00;100656.47;10584298;28;19931;-68
2022/06/26 02:27:49;;;;;;;;;;;;;;;19.34;100.00;100660.22;10588604;28;20258;-68
2022/06/26 02:32:52;;;;;;;;;;;;;;;19.32;100.00;100660.28;10592536;28;20247;-68
2022/06/26 02:37:56;;;;;;;;;;;;;;;19.27;100.00;100667.47;10592119;28;19923;-65
2022/06/26 02:43:00;;;;;;;;;;;;;;;19.28;100.00;100673.56;10591857;28;20380;-67
2022/06/26 02:48:03;;;;;;;;;;;;;;;19.29;100.00;100677.94;10591643;28;20006;-67
2022/06/26 02:53:06;;;;;;;;;;;;;;;19.27;100.00;100674.50;10591539;28;20343;-67
2022/06/26 02:58:11;;;;;;;;;;;;;;;19.22;99.80;100672.03;10591478;28;20250;-64
2022/06/26 03:03:14;;;;;;;;;;;;;;;19.21;99.88;100669.47;10591198;28;20339;-65
2022/06/26 03:08:17;;;;;;;;;;;;;;;19.23;100.00;100692.19;10590768;28;19992;-71
2022/06/26 03:13:21;;;;;;;;;;;;;;;19.29;99.40;100684.03;10590684;28;19924;-65
2022/06/26 03:18:24;;;;;;;;;;;;;;;19.27;99.13;100680.63;10590322;28;19930;-65
2022/06/26 03:28:45;;;;;;;;;;;;;;;19.35;99.00;100688.22;10589886;28;19923;-67
2022/06/26 03:33:48;;;;;;;;;;;;;;;19.38;98.72;100688.97;10589811;28;19927;-67
2022/06/26 03:38:52;;;;;;;;;;;;;;;19.40;100.00;100700.31;10588905;28;19930;-65
2022/06/26 03:43:56;;;;;;;;;;;;;;;19.45;99.49;100697.47;10589744;28;20368;-65
2022/06/26 03:49:01;;;;;;;;;;;;;;;19.52;99.97;100704.19;10589495;28;19924;-65
2022/06/26 03:54:04;;;;;;;;;;;;;;;19.59;99.78;100703.03;10589410;28;19924;-66
2022/06/26 03:59:09;;;;;;;;;;;;;;;19.65;97.80;100702.78;10589097;28;19923;-69
2022/06/26 04:04:12;;;;;;;;;;;;;;;19.64;96.37;100698.44;10586460;28;20285;-67
2022/06/26 04:09:15;;;;;;;;;;;;;;;19.67;94.96;100703.59;10585284;28;19924;-63
2022/06/26 04:14:19;;;;;;;;;;;;;;;19.78;93.64;100708.38;10585614;28;19924;-66
2022/06/26 04:19:22;;;;;;;;;;;;;;;19.82;93.55;100712.59;10585045;28;20338;-67
2022/06/26 04:24:25;;;;;;;;;;;;;;;19.96;91.23;100716.38;10584649;28;19938;-63
2022/06/26 04:29:30;;;;;;;;;;;;;;;20.04;90.76;100719.53;10584643;28;19928;-65
2022/06/26 04:34:33;;;;;;;;;;;;;;;20.12;91.39;100722.69;10584304;28;19923;-64
2022/06/26 04:39:36;;;;;;;;;;;;;;;20.13;93.44;100721.78;10241250;27;10000949;-63
2022/06/26 04:44:40;;;;;;;;;;;;;;;20.22;94.09;100725.84;10626240;27;20341;-64
2022/06/26 04:49:43;;;;;;;;;;;;;;;20.30;92.93;100734.25;10625282;27;20257;-63
2022/06/26 04:54:46;;;;;;;;;;;;;;;20.41;92.76;100724.09;10625961;27;19923;-62
2022/06/26 04:59:51;;;;;;;;;;;;;;;20.47;92.87;100735.22;10625827;27;20027;-63
2022/06/26 05:04:54;;;;;;;;;;;;;;;20.59;91.79;100733.81;10625717;27;19934;-62
2022/06/26 05:09:57;;;;;;;;;;;;;;;20.64;91.51;100732.69;10625449;27;19938;-61
2022/06/26 05:15:01;;;;;;;;;;;;;;;20.73;90.00;100746.38;10625664;27;19923;-65
2022/06/26 05:20:04;;;;;;;;;;;;;;;20.96;87.21;100748.81;10625091;27;19924;-63
2022/06/26 05:25:08;;;;;;;;;;;;;;;21.07;87.27;100751.88;10624975;27;19923;-62
2022/06/26 05:30:13;;;;;;;;;;;;;;;21.13;86.83;100751.56;10625122;27;20235;-66
2022/06/26 05:35:16;;;;;;;;;;;;;;;21.26;85.63;100755.34;10624597;27;19923;-63
2022/06/26 05:40:19;;;;;;;;;;;;;;;21.43;83.29;100758.88;10606822;27;19923;-64
2022/06/26 05:45:23;;;;;;;;;;;;;;;21.53;82.48;100756.66;10582833;28;19931;-65
2022/06/26 05:50:26;;;;;;;;;;;;;;;21.63;82.65;100763.22;10584808;28;20266;-63
2022/06/26 05:55:29;;;;;;;;;;;;;;;21.79;81.37;100758.91;10584786;28;20012;-64
2022/06/26 06:00:33;;;;;;;;;;;;;;;21.92;81.38;100767.09;10585858;28;19934;-63
2022/06/26 06:05:36;;;;;;;;;;;;;;;22.04;79.75;100771.78;10593550;28;19923;-64
2022/06/26 06:10:39;;;;;;;;;;;;;;;22.21;78.91;100772.59;10593475;28;19938;-67
2022/06/26 06:15:44;;;;;;;;;;;;;;;22.32;78.36;100772.91;10592961;28;19934;-67
2022/06/26 06:20:47;;;;;;;;;;;;;;;22.43;76.83;100781.16;10592853;28;19924;-65
2022/06/26 06:26:10;;;;;;;;;;;;;;;22.58;76.59;100788.34;10592865;28;19934;-66
2022/06/26 06:31:14;;;;;;;;;;;;;;;22.68;76.02;100786.91;10592561;28;19949;-64
2022/06/26 06:36:17;;;;;;;;;;;;;;;22.76;75.03;100795.28;10592253;28;19932;-65
2022/06/26 06:41:20;;;;;;;;;;;;;;;22.85;74.26;100780.69;10591913;28;20339;-64
2022/06/26 06:46:25;;;;;;;;;;;;;;;22.97;73.94;100787.97;10591861;28;20010;-65
2022/06/26 06:51:28;;;;;;;;;;;;;;;23.08;72.28;100793.56;10590265;28;20311;-63
2022/06/26 06:56:31;;;;;;;;;;;;;;;23.21;70.84;100791.09;10588479;28;19950;-64
2022/06/26 07:01:35;;;;;;;;;;;;;;;23.33;69.07;100793.13;10587997;28;20343;-64
2022/06/26 07:06:38;;;;;;;;;;;;;;;23.41;68.63;100785.56;10587863;28;19924;-64
2022/06/26 07:11:41;;;;;;;;;;;;;;;23.46;68.88;100780.88;10587366;28;19924;-63
2022/06/26 07:16:47;;;;;;;;;;;;;;;23.72;65.65;100786.41;10586972;28;19936;-63
2022/06/26 07:21:50;;;;;;;;;;;;;;;23.81;63.42;100780.59;10587408;28;19938;-65
2022/06/26 07:26:53;;;;;;;;;;;;;;;23.96;62.40;100779.69;10587152;28;19924;-67
2022/06/26 07:31:58;;;;;;;;;;;;;;;24.13;62.83;100780.50;10586731;28;19923;-66
2022/06/26 07:37:01;;;;;;;;;;;;;;;24.10;63.97;100781.56;10586890;28;19928;-65
2022/06/26 07:42:04;;;;;;;;;;;;;;;24.25;62.79;100785.09;10586215;28;19930;-64
2022/06/26 07:47:08;;;;;;;;;;;;;;;24.35;61.83;100786.28;10260828;27;10000643;-62
2022/06/26 07:52:11;;;;;;;;;;;;;;;24.59;60.34;100782.97;10628801;27;19934;-62
2022/06/26 07:57:14;;;;;;;;;;;;;;;24.67;59.01;100778.06;10629494;27;19931;-65
2022/06/26 08:02:19;;;;;;;;;;;;;;;24.67;59.42;100778.06;10628141;27;19949;-63
2022/06/26 08:07:22;;;;;;;;;;;;;;;24.72;59.96;100786.63;10628205;27;19923;-64
2022/06/26 08:12:25;;;;;;;;;;;;;;;24.84;59.42;100780.56;10627734;27;19923;-67
2022/06/26 08:17:29;;;;;;;;;;;;;;;25.04;58.15;100779.31;10627857;27;19959;-63
2022/06/26 08:22:32;;;;;;;;;;;;;;;25.08;58.46;100779.03;10592971;27;19923;-60
2022/06/26 08:27:35;;;;;;;;;;;;;;;25.20;56.18;100782.72;10584214;28;19927;-67
2022/06/26 08:32:40;;;;;;;;;;;;;;;25.16;57.02;100780.34;10584762;28;19934;-63
2022/06/26 08:37:45;;;;;;;;;;;;;;;25.26;56.78;100782.34;10584126;28;20254;-63
2022/06/26 08:42:49;;;;;;;;;;;;;;;25.35;56.23;100786.22;10583796;28;19934;-65
2022/06/26 08:47:55;;;;;;;;;;;;;;;25.32;56.00;100789.03;10616108;27;19927;-63
2022/06/26 08:52:59;;;;;;;;;;;;;;;25.41;56.09;100785.81;10583640;28;19924;-65
2022/06/26 08:58:02;;;;;;;;;;;;;;;25.43;56.19;100782.13;10583747;28;19937;-63
2022/06/26 09:03:06;;;;;;;;;;;;;;;25.46;55.73;100791.69;10583573;28;19928;-65
2022/06/26 09:08:17;;;;;;;;;;;;;;;25.54;55.55;100778.78;10582430;28;19924;-60
2022/06/26 09:13:20;;;;;;;;;;;;;;;25.58;55.33;100781.13;10582937;28;19930;-62
2022/06/26 09:18:26;;;;;;;;;;;;;;;25.86;54.26;100773.06;10583727;28;19981;-65
2022/06/26 09:23:29;;;;;;;;;;;;;;;25.89;53.89;100788.81;10582584;28;20385;-63
2022/06/26 09:28:33;;;;;;;;;;;;;;;26.23;52.57;100788.28;10582265;28;20582;-63
2022/06/26 09:33:37;;;;;;;;;;;;;;;26.11;53.13;100781.13;10582626;28;19927;-62
2022/06/26 09:38:40;;;;;;;;;;;;;;;26.52;51.28;100775.66;10581396;28;19930;-63
2022/06/26 09:43:44;;;;;;;;;;;;;;;26.81;51.37;100781.63;10581552;28;20266;-61
2022/06/26 09:48:48;;;;;;;;;;;;;;;26.79;52.00;100791.53;10581988;28;19930;-66
2022/06/26 09:53:52;;;;;;;;;;;;;;;26.73;51.96;100784.81;10582159;28;19940;-64
2022/06/26 09:58:58;;;;;;;;;;;;;;;27.39;50.14;100765.84;10581386;28;19972;-63
2022/06/26 10:09:24;;;;;;;;;;;;;;;29.51;45.37;100772.38;10581815;28;19931;-65
2022/06/26 10:14:29;;;;;;;;;;;;;;;29.90;45.58;100757.56;10581151;28;19934;-65
2022/06/26 10:19:39;;;;;;;;;;;;;;;30.08;45.28;100748.00;10581246;28;19938;-63
2022/06/26 10:24:52;;;;;;;;;;;;;;;30.15;44.15;100744.66;10580970;28;19951;-61
2022/06/26 10:30:09;;;;;;;;;;;;;;;30.49;43.93;100750.69;10580594;28;20239;-64
2022/06/26 10:35:14;;;;;;;;;;;;;;;30.58;43.18;100740.00;10581000;28;19931;-65
2022/06/26 10:45:36;;;;;;;;;;;;;;;30.97;42.00;100738.38;10596456;28;19923;-62
2022/06/26 10:50:42;;;;;;;;;;;;;;;31.10;42.29;100730.09;10630604;27;20003;-64
2022/06/26 10:55:46;;;;;;;;;;;;;;;31.73;41.18;100726.97;10630824;27;19931;-63
2022/06/26 11:00:50;;;;;;;;;;;;;;;31.64;41.49;100734.03;10630558;27;19924;-64
2022/06/26 11:05:58;;;;;;;;;;;;;;;32.24;40.50;100729.34;10630571;27;19984;-66
2022/06/26 11:11:02;;;;;;;;;;;;;;;33.41;38.68;100723.19;10630193;27;19923;-67
2022/06/26 11:16:06;;;;;;;;;;;;;;;33.89;37.32;100726.38;10629945;27;19938;-68
2022/06/26 11:21:10;;;;;;;;;;;;;;;34.03;37.88;100724.19;10629766;27;19924;-66
2022/06/26 11:26:14;;;;;;;;;;;;;;;34.54;37.74;100716.13;10630030;27;19929;-66
2022/06/26 11:31:20;;;;;;;;;;;;;;;34.02;37.64;100722.47;10629430;27;19928;-68
2022/06/26 11:36:24;;;;;;;;;;;;;;;34.49;37.08;100718.47;10629230;27;19987;-67
2022/06/26 11:41:27;;;;;;;;;;;;;;;34.16;36.36;100719.22;10629043;27;19927;-69
2022/06/26 11:46:30;;;;;;;;;;;;;;;34.70;38.58;100713.53;10604982;27;19934;-67
2022/06/26 11:51:35;;;;;;;;;;;;;;;35.73;36.03;100706.78;10587045;28;19984;-71
2022/06/26 11:56:38;;;;;;;;;;;;;;;35.97;36.60;100697.84;10586284;28;19946;-67
2022/06/26 12:01:41;;;;;;;;;;;;;;;36.95;35.28;100705.56;10585030;28;19932;-69
2022/06/26 12:06:49;;;;;;;;;;;;;;;37.10;34.67;100701.94;10585731;28;20010;-66
2022/06/26 12:11:54;;;;;;;;;;;;;;;37.22;34.08;100693.41;10585199;28;19942;-68
2022/06/26 12:16:58;;;;;;;;;;;;;;;36.81;33.75;100711.75;10584976;28;19974;-68
2022/06/26 12:22:03;;;;;;;;;;;;;;;36.71;35.03;100692.09;10585503;28;19924;-66
2022/06/26 12:27:06;;;;;;;;;;;;;;;36.70;35.04;100696.69;10584510;28;19924;-68
2022/06/26 12:32:09;;;;;;;;;;;;;;;36.41;34.92;100690.19;10584371;28;19924;-70
2022/06/26 12:37:13;;;;;;;;;;;;;;;36.05;35.47;100705.09;10584521;28;19933;-69
2022/06/26 12:42:16;;;;;;;;;;;;;;;35.55;36.55;100699.84;10583621;28;19958;-69
2022/06/26 12:47:19;;;;;;;;;;;;;;;35.90;35.25;100694.97;10614644;27;19930;-66
2022/06/26 12:52:24;;;;;;;;;;;;;;;35.91;35.25;100691.25;10626041;27;19960;-66
2022/06/26 12:57:27;;;;;;;;;;;;;;;36.02;33.49;100681.13;10626066;27;20247;-68
2022/06/26 13:02:30;;;;;;;;;;;;;;;36.05;34.85;100688.88;10625820;27;19927;-70
2022/06/26 13:07:35;;;;;;;;;;;;;;;36.11;35.75;100691.75;10625542;27;19938;-67
2022/06/26 13:12:38;;;;;;;;;;;;;;;36.03;36.05;100696.31;10624779;27;19923;-65
2022/06/26 13:17:47;;;;;;;;;;;;;;;36.00;36.16;100684.00;10625466;27;19934;-66
2022/06/26 13:22:51;;;;;;;;;;;;;;;36.16;36.05;100688.50;10625068;27;20264;-69
2022/06/26 13:27:55;;;;;;;;;;;;;;;36.24;36.22;100700.19;10625649;27;19930;-63
2022/06/26 13:32:58;;;;;;;;;;;;;;;35.08;37.78;100699.53;10625227;27;19924;-64
2022/06/26 13:38:02;;;;;;;;;;;;;;;34.37;37.79;100703.53;10624774;27;19923;-65
2022/06/26 13:43:05;;;;;;;;;;;;;;;33.96;38.50;100712.31;10624293;27;19923;-66
2022/06/26 13:48:08;;;;;;;;;;;;;;;33.86;40.43;100715.06;10587246;27;19924;-64
2022/06/26 13:53:13;;;;;;;;;;;;;;;33.06;40.66;100712.41;10581815;28;19946;-66
2022/06/26 13:58:16;;;;;;;;;;;;;;;32.72;41.48;100719.34;10581399;28;20007;-67
2022/06/26 14:03:19;;;;;;;;;;;;;;;33.28;39.54;100709.28;10581439;28;19923;-66
2022/06/26 14:08:23;;;;;;;;;;;;;;;33.47;39.69;100709.16;10581602;28;19934;-67
2022/06/26 14:13:26;;;;;;;;;;;;;;;33.88;38.88;100707.69;10581166;28;19924;-67
2022/06/26 14:18:29;;;;;;;;;;;;;;;33.94;38.23;100698.16;10581572;28;20012;-67
2022/06/26 14:28:54;;;;;;;;;;;;;;;33.98;37.22;100699.56;10589340;28;19931;-66
2022/06/26 14:33:59;;;;;;;;;;;;;;;33.87;38.29;100703.31;10589296;28;19938;-66
2022/06/26 14:39:03;;;;;;;;;;;;;;;34.06;38.06;100696.91;10588912;28;19924;-67
2022/06/26 14:44:06;;;;;;;;;;;;;;;33.80;39.95;100692.31;10592099;27;19923;-69
2022/06/26 14:49:09;;;;;;;;;;;;;;;33.35;39.63;100685.28;10631478;27;19923;-68
2022/06/26 14:54:14;;;;;;;;;;;;;;;33.47;39.08;100694.84;10631173;27;19964;-66
2022/06/26 14:59:17;;;;;;;;;;;;;;;33.40;39.36;100689.22;10630976;27;20032;-67
2022/06/26 15:04:20;;;;;;;;;;;;;;;32.63;40.80;100686.09;10630722;27;19923;-67
2022/06/26 15:09:24;;;;;;;;;;;;;;;31.82;41.20;100690.34;10630491;27;19924;-68
2022/06/26 15:14:27;;;;;;;;;;;;;;;32.02;41.64;100684.84;10630623;27;19927;-69
2022/06/26 15:19:30;;;;;;;;;;;;;;;32.27;41.68;100691.44;10629972;27;19923;-69
2022/06/26 15:24:35;;;;;;;;;;;;;;;32.27;42.00;100681.50;10629925;27;19924;-68
2022/06/26 15:29:38;;;;;;;;;;;;;;;32.15;41.94;100680.00;10630111;27;19975;-67
2022/06/26 15:34:42;;;;;;;;;;;;;;;32.16;41.13;100678.16;10628379;27;19934;-70
2022/06/26 15:39:50;;;;;;;;;;;;;;;32.14;39.81;100672.09;10629376;27;19980;-68
2022/06/26 15:44:59;;;;;;;;;;;;;;;31.99;41.05;100676.22;10618108;27;19976;-71
2022/06/26 15:50:02;;;;;;;;;;;;;;;31.66;42.91;100675.69;10586071;28;19987;-67
2022/06/26 15:55:07;;;;;;;;;;;;;;;31.14;43.64;100684.06;10586292;28;19930;-66
2022/06/26 16:00:11;;;;;;;;;;;;;;;31.01;42.27;100682.63;10585699;28;19992;-67
2022/06/26 16:05:14;;;;;;;;;;;;;;;31.10;41.96;100671.09;10585938;28;19927;-66
2022/06/26 16:10:19;;;;;;;;;;;;;;;31.07;45.25;100679.38;10586011;28;19924;-66
2022/06/26 16:15:22;;;;;;;;;;;;;;;31.08;42.95;100673.88;10584957;28;19923;-66
2022/06/26 16:20:25;;;;;;;;;;;;;;;31.08;43.05;100675.75;10585193;28;20266;-69
2022/06/26 16:30:50;;;;;;;;;;;;;;;30.57;43.44;100678.50;10584425;28;19923;-68
2022/06/26 16:35:53;;;;;;;;;;;;;;;30.16;45.57;100689.25;10584456;28;20362;-70
2022/06/26 16:40:57;;;;;;;;;;;;;;;29.87;46.09;100690.91;10584000;28;19977;-68
2022/06/26 16:46:00;;;;;;;;;;;;;;;29.65;46.40;100691.81;10603273;27;19972;-66
2022/06/26 16:51:04;;;;;;;;;;;;;;;29.66;46.40;100695.34;10626632;27;19977;-68
2022/06/26 16:56:09;;;;;;;;;;;;;;;29.60;46.98;100698.56;10626158;27;19923;-70
2022/06/26 17:01:12;;;;;;;;;;;;;;;29.45;47.21;100688.16;10626301;27;19924;-70
2022/06/26 17:06:15;;;;;;;;;;;;;;;29.30;47.44;100684.03;10625711;27;19923;-71
2022/06/26 17:11:19;;;;;;;;;;;;;;;29.24;48.00;100681.88;10625626;27;19935;-69
2022/06/26 17:16:22;;;;;;;;;;;;;;;29.11;47.52;100694.53;10625710;27;19937;-68
2022/06/26 17:21:25;;;;;;;;;;;;;;;29.05;47.99;100695.03;10625036;27;20310;-68
2022/06/26 17:26:30;;;;;;;;;;;;;;;28.93;48.03;100701.38;10625265;27;20372;-68
2022/06/26 17:31:33;;;;;;;;;;;;;;;28.83;47.74;100697.75;10626145;27;19924;-66
2022/06/26 17:36:36;;;;;;;;;;;;;;;28.75;47.14;100702.81;10627798;27;19956;-66
2022/06/26 17:41:41;;;;;;;;;;;;;;;28.61;48.90;100703.09;10627798;27;19924;-70
2022/06/26 17:46:44;;;;;;;;;;;;;;;28.50;48.27;100703.06;10627648;27;19930;-68
2022/06/26 17:51:47;;;;;;;;;;;;;;;28.41;48.45;100701.97;10627246;27;19973;-68
2022/06/26 17:56:53;;;;;;;;;;;;;;;28.30;49.09;100701.94;10627334;27;19934;-68
2022/06/26 18:01:56;;;;;;;;;;;;;;;28.16;50.60;100714.66;10627117;27;19933;-67
2022/06/26 18:07:00;;;;;;;;;;;;;;;28.04;50.53;100710.28;10627086;27;19923;-69
2022/06/26 18:12:04;;;;;;;;;;;;;;;27.93;50.84;100710.22;10626947;27;20322;-66
2022/06/26 18:17:08;;;;;;;;;;;;;;;27.85;50.38;100717.94;10626895;27;19975;-68
2022/06/26 18:22:11;;;;;;;;;;;;;;;27.71;51.02;100713.66;10626923;27;19933;-69
2022/06/26 18:27:15;;;;;;;;;;;;;;;27.62;51.12;100718.81;10626596;27;20349;-66
2022/06/26 18:32:18;;;;;;;;;;;;;;;27.53;52.52;100727.50;10626580;27;19924;-67
2022/06/26 18:37:21;;;;;;;;;;;;;;;27.44;52.60;100728.19;10626765;27;19930;-69
2022/06/26 18:42:28;;;;;;;;;;;;;;;27.34;53.21;100735.19;10626464;27;19995;-69
2022/06/26 18:47:35;;;;;;;;;;;;;;;27.21;53.48;100740.50;10626391;27;20014;-70
2022/06/26 18:52:38;;;;;;;;;;;;;;;27.12;53.80;100739.38;10626634;27;19927;-69
2022/06/26 18:57:43;;;;;;;;;;;;;;;27.02;54.73;100745.47;10626305;28;19923;-67
2022/06/26 19:02:47;;;;;;;;;;;;;;;26.88;55.90;100762.44;10626251;27;19923;-69
2022/06/26 19:07:50;;;;;;;;;;;;;;;26.80;55.56;100771.94;10626161;27;19968;-69
2022/06/26 19:18:15;;;;;;;;;;;;;;;26.63;56.59;100781.06;10634023;27;19924;-69
2022/06/26 19:23:18;;;;;;;;;;;;;;;26.46;57.30;100789.38;10633278;27;20010;-71
2022/06/26 19:28:23;;;;;;;;;;;;;;;26.36;57.74;100782.97;10632942;27;19923;-70
2022/06/26 19:33:26;;;;;;;;;;;;;;;26.33;57.68;100796.50;10632585;27;19923;-65
2022/06/26 19:38:29;;;;;;;;;;;;;;;26.20;59.07;100801.78;10632582;27;19924;-69
2022/06/26 19:43:34;;;;;;;;;;;;;;;26.07;60.79;100802.72;10632440;27;19954;-68
2022/06/26 19:48:40;;;;;;;;;;;;;;;25.97;62.08;100801.59;10632052;27;20010;-68
2022/06/26 19:53:44;;;;;;;;;;;;;;;25.86;62.01;100809.44;10631697;27;19923;-68
2022/06/26 19:58:48;;;;;;;;;;;;;;;25.72;65.04;100822.78;10631709;27;19924;-71
2022/06/26 20:03:57;;;;;;;;;;;;;;;25.63;63.84;100828.69;10632292;27;19927;-68
2022/06/26 20:09:00;;;;;;;;;;;;;;;25.64;62.44;100822.44;10631602;27;19930;-65
2022/06/26 20:14:20;;;;;;;;;;;;;;;25.49;63.46;100826.91;10630438;27;19927;-67
2022/06/26 20:19:23;;;;;;;;;;;;;;;25.35;63.54;100818.94;10627876;27;19928;-70
2022/06/26 20:24:26;;;;;;;;;;;;;;;25.32;63.60;100828.91;10627836;27;19923;-68
2022/06/26 20:29:31;;;;;;;;;;;;;;;25.16;64.19;100825.53;10235248;27;10000158;-66
2022/06/26 20:34:34;;;;;;;;;;;;;;;25.11;63.72;100826.66;10584501;28;19930;-68
2022/06/26 20:39:37;;;;;;;;;;;;;;;25.10;63.53;100830.28;10584424;28;19924;-67
2022/06/26 20:44:41;;;;;;;;;;;;;;;24.98;64.52;100824.88;10584014;28;19930;-65
2022/06/26 20:49:44;;;;;;;;;;;;;;;24.93;65.77;100829.59;10583711;28;20228;-68
2022/06/26 20:54:49;;;;;;;;;;;;;;;24.91;64.24;100835.03;10583871;28;19938;-68
2022/06/26 20:59:53;;;;;;;;;;;;;;;24.80;65.79;100840.13;10583365;28;20282;-66
2022/06/26 21:04:56;;;;;;;;;;;;;;;24.72;65.93;100841.53;10583261;28;20266;-67
2022/06/26 21:09:59;;;;;;;;;;;;;;;24.58;68.56;100846.78;10582595;28;19938;-69
2022/06/26 21:15:04;;;;;;;;;;;;;;;24.54;67.92;100855.91;10582695;28;20025;-67
2022/06/26 21:20:08;;;;;;;;;;;;;;;24.47;68.68;100850.06;10582863;28;19959;-67
2022/06/26 21:25:11;;;;;;;;;;;;;;;24.38;68.94;100850.66;10584745;27;20449;-66
2022/06/26 21:30:19;;;;;;;;;;;;;;;24.28;69.77;100853.94;10624836;27;19933;-69
2022/06/26 21:35:22;;;;;;;;;;;;;;;24.16;70.84;100863.44;10624450;27;20018;-69
2022/06/26 21:40:25;;;;;;;;;;;;;;;24.08;72.14;100857.72;10624719;27;19923;-68
2022/06/26 21:45:30;;;;;;;;;;;;;;;24.00;71.88;100852.00;10625014;27;20299;-68
2022/06/26 21:50:33;;;;;;;;;;;;;;;23.91;72.60;100855.16;10624646;27;20257;-65
2022/06/26 21:55:36;;;;;;;;;;;;;;;23.69;75.38;100849.38;10624729;27;20349;-63
2022/06/26 22:00:41;;;;;;;;;;;;;;;23.58;75.34;100862.34;10624288;27;20250;-62
2022/06/26 22:05:44;;;;;;;;;;;;;;;23.57;77.82;100874.72;10624118;28;19923;-63
2022/06/26 22:10:47;;;;;;;;;;;;;;;23.12;91.23;100886.94;10623933;27;20014;-65
2022/06/26 22:15:53;;;;;;;;;;;;;;;22.10;98.25;100880.72;10624065;27;19941;-65
2022/06/26 22:20:56;;;;;;;;;;;;;;;21.62;100.00;100888.34;10623806;27;19924;-61
2022/06/26 22:31:22;;;;;;;;;;;;;;;20.38;100.00;100930.75;10581313;28;19923;-65
2022/06/26 22:36:25;;;;;;;;;;;;;;;19.60;100.00;100944.41;10580981;28;19927;-69
2022/06/26 22:41:28;;;;;;;;;;;;;;;19.36;100.00;100946.16;10580916;28;19928;-69
2022/06/26 22:46:32;;;;;;;;;;;;;;;19.28;100.00;100942.06;10588000;28;19934;-66
2022/06/26 22:51:36;;;;;;;;;;;;;;;19.16;100.00;100931.97;10588619;28;20346;-67
2022/06/26 22:56:39;;;;;;;;;;;;;;;19.15;100.00;100925.00;10588642;28;19924;-67
2022/06/26 23:01:43;;;;;;;;;;;;;;;19.14;100.00;100926.78;10588342;28;19924;-65
2022/06/26 23:06:46;;;;;;;;;;;;;;;19.28;100.00;100931.53;10588042;28;19924;-63
2022/06/26 23:11:49;;;;;;;;;;;;;;;19.29;100.00;100928.84;10588143;28;19924;-66
2022/06/26 23:16:53;;;;;;;;;;;;;;;19.35;100.00;100939.19;10587675;28;19923;-62
2022/06/26 23:21:56;;;;;;;;;;;;;;;19.46;100.00;100931.78;10587527;28;20286;-68
2022/06/26 23:26:59;;;;;;;;;;;;;;;19.65;100.00;100921.41;10605106;27;19935;-66
2022/06/26 23:32:04;;;;;;;;;;;;;;;19.58;100.00;100890.06;10629636;27;19927;-65
2022/06/26 23:37:07;;;;;;;;;;;;;;;19.72;100.00;100887.78;10629723;27;19923;-65
2022/06/26 23:42:10;;;;;;;;;;;;;;;19.72;100.00;100886.00;10629348;27;19923;-64
2022/06/26 23:47:14;;;;;;;;;;;;;;;19.76;100.00;100881.47;10629209;27;19956;-65
2022/06/26 23:52:19;;;;;;;;;;;;;;;19.79;100.00;100884.84;10629344;27;19932;-65
2022/06/26 23:57:24;;;;;;;;;;;;;;;19.78;100.00;100895.41;10580579;27;19931;-64
